createdAt,value
2017-12-17T00:01:19.439Z,9.67
2017-12-17T00:03:47.185Z,8.40
2017-12-17T00:06:14.525Z,7.70
2017-12-17T00:08:42.170Z,7.73
2017-12-17T00:11:09.856Z,8.40
2017-12-17T00:13:37.535Z,8.70
2017-12-17T00:16:04.867Z,7.40
2017-12-17T00:18:32.663Z,8.50
2017-12-17T00:21:00.363Z,7.63
2017-12-17T00:23:27.686Z,7.70
2017-12-17T00:25:55.051Z,7.63
2017-12-17T00:28:22.722Z,7.80
2017-12-17T00:30:50.114Z,6.87
2017-12-17T00:33:17.477Z,7.33
2017-12-17T00:35:45.098Z,7.20
2017-12-17T00:38:12.450Z,6.60
2017-12-17T00:40:39.835Z,7.20
2017-12-17T00:43:07.144Z,7.00
2017-12-17T00:45:34.831Z,7.30
2017-12-17T00:48:02.199Z,6.60
2017-12-17T00:50:29.838Z,7.13
2017-12-17T00:52:57.155Z,7.13
2017-12-17T00:55:24.503Z,6.97
2017-12-17T00:57:51.874Z,6.80
2017-12-17T01:00:19.640Z,6.43
2017-12-17T01:02:47.338Z,6.33
2017-12-17T01:05:14.683Z,6.97
2017-12-17T01:07:42.007Z,5.60
2017-12-17T01:10:09.724Z,6.43
2017-12-17T01:12:37.147Z,6.57
2017-12-17T01:15:04.826Z,6.00
2017-12-17T01:17:32.127Z,6.57
2017-12-17T01:19:59.462Z,6.17
2017-12-17T01:22:26.884Z,6.07
2017-12-17T01:24:54.205Z,5.93
2017-12-17T01:27:21.583Z,6.97
2017-12-17T01:29:49.249Z,7.20
2017-12-17T01:32:16.910Z,5.97
2017-12-17T01:34:44.311Z,6.07
2017-12-17T01:37:11.615Z,6.37
2017-12-17T01:39:39.295Z,6.23
2017-12-17T01:42:06.651Z,6.17
2017-12-17T01:44:33.962Z,7.00
2017-12-17T01:47:01.677Z,6.17
2017-12-17T01:49:29.014Z,6.00
2017-12-17T01:51:56.333Z,6.50
2017-12-17T01:54:24.034Z,6.30
2017-12-17T01:56:51.397Z,6.03
2017-12-17T01:59:18.733Z,6.60
2017-12-17T02:01:46.390Z,5.40
2017-12-17T02:04:14.135Z,6.13
2017-12-17T02:06:41.838Z,6.13
2017-12-17T02:09:09.483Z,5.87
2017-12-17T02:11:36.834Z,6.03
2017-12-17T02:14:04.283Z,5.87
2017-12-17T02:16:31.955Z,6.17
2017-12-17T02:18:59.334Z,6.43
2017-12-17T02:21:26.650Z,6.60
2017-12-17T02:23:54.281Z,6.90
2017-12-17T02:26:21.639Z,7.07
2017-12-17T02:28:49.511Z,6.00
2017-12-17T02:31:16.824Z,5.90
2017-12-17T02:33:44.486Z,5.73
2017-12-17T02:36:12.132Z,5.67
2017-12-17T02:38:39.435Z,6.07
2017-12-17T02:41:07.283Z,6.70
2017-12-17T02:43:34.907Z,6.40
2017-12-17T02:46:02.223Z,6.43
2017-12-17T02:48:29.978Z,6.43
2017-12-17T02:50:57.307Z,5.00
2017-12-17T02:53:24.855Z,6.70
2017-12-17T02:55:52.554Z,6.20
2017-12-17T02:58:19.890Z,6.40
2017-12-17T03:00:47.516Z,6.20
2017-12-17T03:03:14.867Z,6.33
2017-12-17T03:05:42.175Z,6.70
2017-12-17T03:08:09.474Z,5.80
2017-12-17T03:10:36.822Z,5.87
2017-12-17T03:13:04.150Z,6.10
2017-12-17T03:15:31.855Z,5.10
2017-12-17T03:17:59.222Z,5.77
2017-12-17T03:20:26.858Z,6.20
2017-12-17T03:22:54.638Z,6.20
2017-12-17T03:25:22.009Z,5.43
2017-12-17T03:27:49.675Z,5.43
2017-12-17T03:30:17.332Z,5.90
2017-12-17T03:32:45.010Z,6.80
2017-12-17T03:35:12.643Z,6.23
2017-12-17T03:37:39.971Z,5.63
2017-12-17T03:40:07.434Z,6.80
2017-12-17T03:42:35.156Z,5.93
2017-12-17T03:45:02.470Z,6.40
2017-12-17T03:47:29.970Z,6.53
2017-12-17T03:49:57.279Z,6.37
2017-12-17T03:52:24.594Z,6.40
2017-12-17T03:54:52.325Z,6.83
2017-12-17T03:57:19.942Z,6.70
2017-12-17T03:59:47.252Z,6.80
2017-12-17T04:02:14.589Z,6.60
2017-12-17T04:04:42.215Z,7.10
2017-12-17T04:07:09.524Z,7.30
2017-12-17T04:09:36.850Z,7.70
2017-12-17T04:12:04.170Z,7.37
2017-12-17T04:14:31.482Z,7.70
2017-12-17T04:16:58.854Z,7.53
2017-12-17T04:19:26.170Z,7.07
2017-12-17T04:21:53.814Z,7.77
2017-12-17T04:24:21.159Z,7.60
2017-12-17T04:26:48.470Z,6.80
2017-12-17T04:29:15.804Z,6.50
2017-12-17T04:31:43.551Z,7.70
2017-12-17T04:34:11.189Z,8.00
2017-12-17T04:36:38.502Z,6.83
2017-12-17T04:39:06.224Z,5.30
2017-12-17T04:41:33.539Z,6.53
2017-12-17T04:44:00.934Z,5.63
2017-12-17T04:46:28.897Z,4.60
2017-12-17T04:48:56.538Z,4.87
2017-12-17T04:51:24.851Z,4.60
2017-12-17T04:53:52.518Z,5.13
2017-12-17T04:56:20.154Z,3.93
2017-12-17T04:58:47.465Z,4.50
2017-12-17T05:01:15.238Z,4.50
2017-12-17T05:03:42.927Z,4.57
2017-12-17T05:06:10.299Z,4.80
2017-12-17T05:08:37.977Z,5.17
2017-12-17T05:11:05.610Z,5.60
2017-12-17T05:13:33.380Z,5.10
2017-12-17T05:16:01.079Z,5.43
2017-12-17T05:18:28.382Z,5.87
2017-12-17T05:20:55.732Z,6.50
2017-12-17T05:23:23.463Z,5.67
2017-12-17T05:25:51.158Z,6.27
2017-12-17T05:28:18.488Z,6.30
2017-12-17T05:30:46.151Z,5.63
2017-12-17T05:33:13.658Z,6.43
2017-12-17T05:35:41.308Z,5.90
2017-12-17T05:38:08.994Z,6.00
2017-12-17T05:40:36.617Z,6.07
2017-12-17T05:43:03.970Z,5.50
2017-12-17T05:45:31.699Z,6.25
2017-12-17T05:47:59.017Z,5.70
2017-12-17T05:50:26.754Z,6.00
2017-12-17T05:52:54.114Z,6.33
2017-12-17T05:55:21.442Z,7.60
2017-12-17T05:57:49.178Z,7.40
2017-12-17T06:00:16.538Z,7.47
2017-12-17T06:02:43.879Z,8.30
2017-12-17T06:05:11.342Z,7.63
2017-12-17T06:07:38.987Z,8.00
2017-12-17T06:10:06.353Z,7.80
2017-12-17T06:12:34.786Z,8.20
2017-12-17T06:15:02.585Z,7.73
2017-12-17T06:17:29.894Z,7.87
2017-12-17T06:19:57.399Z,6.77
2017-12-17T06:22:25.066Z,7.73
2017-12-17T06:24:52.685Z,8.37
2017-12-17T06:27:20.438Z,7.70
2017-12-17T06:29:48.201Z,8.00
2017-12-17T06:32:16.049Z,7.97
2017-12-17T06:34:43.371Z,7.83
2017-12-17T06:37:10.714Z,8.07
2017-12-17T06:39:38.346Z,8.90
2017-12-17T06:42:05.695Z,7.50
2017-12-17T06:44:33.362Z,9.50
2017-12-17T06:47:00.739Z,8.13
2017-12-17T06:49:28.095Z,9.13
2017-12-17T06:51:55.447Z,7.80
2017-12-17T06:54:22.921Z,8.60
2017-12-17T06:56:50.607Z,8.37
2017-12-17T06:59:17.918Z,8.07
2017-12-17T07:01:45.563Z,9.40
2017-12-17T07:04:13.182Z,9.10
2017-12-17T07:06:40.517Z,8.73
2017-12-17T07:09:08.177Z,8.33
2017-12-17T07:11:36.134Z,8.23
2017-12-17T07:14:03.775Z,7.80
2017-12-17T07:16:31.086Z,7.80
2017-12-17T07:18:58.470Z,7.70
2017-12-17T07:21:26.143Z,7.87
2017-12-17T07:23:53.802Z,8.53
2017-12-17T07:26:22.172Z,8.07
2017-12-17T07:28:49.482Z,7.93
2017-12-17T07:31:17.110Z,8.80
2017-12-17T07:33:44.463Z,8.97
2017-12-17T07:36:11.846Z,8.00
2017-12-17T07:38:39.534Z,6.40
2017-12-17T07:41:07.537Z,8.03
2017-12-17T07:43:35.223Z,7.47
2017-12-17T07:46:02.860Z,7.90
2017-12-17T07:48:30.555Z,7.10
2017-12-17T07:50:58.299Z,7.13
2017-12-17T07:53:25.624Z,7.53
2017-12-17T07:55:53.099Z,7.60
2017-12-17T07:58:20.435Z,9.10
2017-12-17T08:00:47.774Z,8.17
2017-12-17T08:03:15.241Z,8.43
2017-12-17T08:05:42.923Z,8.00
2017-12-17T08:08:10.583Z,7.03
2017-12-17T08:10:37.940Z,7.10
2017-12-17T08:13:05.611Z,8.10
2017-12-17T08:15:32.978Z,7.70
2017-12-17T08:18:00.669Z,6.70
2017-12-17T08:20:28.278Z,7.90
2017-12-17T08:22:55.994Z,8.47
2017-12-17T08:25:23.367Z,9.70
2017-12-17T08:27:50.840Z,7.50
2017-12-17T08:30:18.153Z,8.23
2017-12-17T08:32:45.771Z,7.33
2017-12-17T08:35:13.495Z,7.60
2017-12-17T08:37:41.237Z,7.80
2017-12-17T08:40:08.542Z,8.00
2017-12-17T08:42:35.907Z,8.20
2017-12-17T08:45:06.309Z,8.03
2017-12-17T08:47:33.634Z,8.80
2017-12-17T08:50:01.091Z,8.40
2017-12-17T08:52:28.410Z,8.30
2017-12-17T08:54:55.747Z,8.60
2017-12-17T08:57:23.101Z,9.00
2017-12-17T08:59:50.442Z,8.87
2017-12-17T09:02:17.759Z,9.50
2017-12-17T09:04:45.121Z,8.63
2017-12-17T09:07:12.435Z,9.87
2017-12-17T09:09:39.737Z,9.27
2017-12-17T09:12:07.122Z,11.27
2017-12-17T09:14:34.444Z,9.00
2017-12-17T09:17:01.775Z,9.37
2017-12-17T09:19:29.326Z,9.83
2017-12-17T09:21:57.071Z,10.30
2017-12-17T09:24:24.399Z,10.80
2017-12-17T09:26:51.798Z,8.77
2017-12-17T09:29:19.122Z,8.80
2017-12-17T09:31:46.477Z,9.73
2017-12-17T09:34:14.095Z,8.90
2017-12-17T09:36:41.498Z,9.10
2017-12-17T09:39:08.818Z,9.00
2017-12-17T09:41:36.174Z,11.90
2017-12-17T09:44:03.512Z,9.70
2017-12-17T09:46:31.113Z,8.90
2017-12-17T09:48:59.222Z,10.00
2017-12-17T09:51:26.553Z,9.60
2017-12-17T09:53:53.905Z,9.33
2017-12-17T09:56:21.259Z,9.50
2017-12-17T09:58:48.579Z,9.07
2017-12-17T10:01:17.847Z,7.87
2017-12-17T10:03:45.227Z,9.00
2017-12-17T10:06:12.571Z,9.70
2017-12-17T10:08:39.888Z,8.63
2017-12-17T10:11:07.419Z,8.33
2017-12-17T10:13:34.775Z,8.80
2017-12-17T10:16:02.092Z,8.40
2017-12-17T10:18:29.499Z,10.47
2017-12-17T10:20:56.802Z,9.70
2017-12-17T10:23:24.407Z,9.93
2017-12-17T10:25:51.803Z,10.37
2017-12-17T10:28:19.423Z,10.60
2017-12-17T10:30:46.759Z,10.00
2017-12-17T10:33:14.117Z,11.13
2017-12-17T10:35:41.621Z,9.73
2017-12-17T10:38:09.014Z,10.67
2017-12-17T10:40:36.362Z,10.93
2017-12-17T10:43:03.690Z,10.87
2017-12-17T10:45:31.378Z,9.97
2017-12-17T10:47:58.743Z,11.07
2017-12-17T10:50:26.143Z,12.23
2017-12-17T10:52:53.569Z,11.20
2017-12-17T10:55:20.926Z,10.50
2017-12-17T10:57:48.598Z,10.13
2017-12-17T11:00:15.969Z,10.63
2017-12-17T11:02:43.744Z,10.67
2017-12-17T11:05:12.259Z,10.20
2017-12-17T11:07:39.626Z,10.90
2017-12-17T11:10:07.005Z,10.67
2017-12-17T11:12:34.381Z,10.87
2017-12-17T11:15:03.134Z,10.40
2017-12-17T11:17:30.554Z,10.10
2017-12-17T11:19:58.198Z,9.27
2017-12-17T11:22:25.878Z,9.00
2017-12-17T11:24:53.503Z,9.73
2017-12-17T11:27:20.854Z,9.00
2017-12-17T11:29:48.244Z,9.33
2017-12-17T11:32:15.867Z,9.40
2017-12-17T11:34:43.183Z,10.07
2017-12-17T11:37:10.551Z,12.43
2017-12-17T11:39:38.247Z,10.27
2017-12-17T11:42:05.767Z,9.80
2017-12-17T11:44:33.098Z,9.33
2017-12-17T11:47:00.415Z,10.03
2017-12-17T11:49:27.822Z,9.83
2017-12-17T11:51:55.128Z,9.80
2017-12-17T11:54:22.562Z,8.00
2017-12-17T11:56:49.921Z,8.13
2017-12-17T11:59:17.486Z,8.33
2017-12-17T12:01:44.803Z,7.87
2017-12-17T12:04:12.160Z,7.80
2017-12-17T12:06:39.482Z,7.67
2017-12-17T12:09:06.807Z,7.30
2017-12-17T12:11:34.162Z,8.10
2017-12-17T12:14:01.483Z,8.43
2017-12-17T12:16:28.803Z,7.30
2017-12-17T12:18:56.611Z,8.93
2017-12-17T12:21:23.982Z,9.27
2017-12-17T12:23:51.295Z,7.33
2017-12-17T12:26:18.650Z,9.17
2017-12-17T12:28:46.019Z,9.40
2017-12-17T12:31:13.617Z,10.30
2017-12-17T12:33:41.003Z,10.80
2017-12-17T12:36:08.324Z,8.53
2017-12-17T12:38:35.627Z,7.90
2017-12-17T12:41:03.109Z,8.60
2017-12-17T12:43:30.435Z,9.33
2017-12-17T12:45:57.774Z,9.60
2017-12-17T12:48:25.172Z,8.87
2017-12-17T12:50:52.510Z,9.17
2017-12-17T12:53:19.820Z,8.83
2017-12-17T12:55:47.198Z,8.60
2017-12-17T12:58:14.521Z,8.13
2017-12-17T13:00:41.887Z,7.30
2017-12-17T13:03:09.279Z,7.33
2017-12-17T13:05:36.644Z,7.43
2017-12-17T13:08:03.956Z,8.20
2017-12-17T13:10:31.294Z,7.80
2017-12-17T13:12:58.630Z,7.60
2017-12-17T13:15:25.986Z,8.53
2017-12-17T13:17:53.344Z,8.77
2017-12-17T13:20:20.679Z,8.67
2017-12-17T13:22:48.101Z,7.27
2017-12-17T13:25:15.498Z,7.63
2017-12-17T13:27:42.882Z,8.50
2017-12-17T13:30:10.226Z,8.07
2017-12-17T13:32:37.578Z,9.27
2017-12-17T13:35:04.932Z,9.83
2017-12-17T13:37:32.247Z,10.70
2017-12-17T13:39:59.618Z,10.40
2017-12-17T13:42:26.936Z,9.73
2017-12-17T13:44:54.278Z,9.30
2017-12-17T13:47:21.735Z,9.00
2017-12-17T13:49:49.078Z,8.77
2017-12-17T13:52:16.430Z,9.20
2017-12-17T13:54:43.810Z,8.60
2017-12-17T13:57:11.135Z,9.10
2017-12-17T13:59:38.459Z,9.43
2017-12-17T14:02:05.810Z,7.80
2017-12-17T14:04:33.118Z,8.10
2017-12-17T14:07:00.469Z,9.30
2017-12-17T14:09:27.826Z,6.13
2017-12-17T14:11:55.351Z,6.43
2017-12-17T14:14:22.674Z,5.77
2017-12-17T14:16:50.067Z,5.30
2017-12-17T14:19:17.365Z,5.17
2017-12-17T14:21:44.736Z,5.60
2017-12-17T14:24:13.124Z,4.80
2017-12-17T14:26:40.426Z,4.80
2017-12-17T14:29:07.746Z,4.60
2017-12-17T14:31:35.114Z,4.97
2017-12-17T14:34:02.420Z,4.37
2017-12-17T14:36:29.841Z,4.40
2017-12-17T14:38:57.963Z,4.13
2017-12-17T14:41:25.280Z,4.20
2017-12-17T14:43:52.611Z,4.43
2017-12-17T14:46:20.063Z,4.17
2017-12-17T14:48:47.389Z,4.50
2017-12-17T14:51:14.782Z,4.77
2017-12-17T14:53:42.187Z,5.40
2017-12-17T14:56:09.784Z,5.23
2017-12-17T14:58:37.111Z,4.20
2017-12-17T15:01:04.478Z,4.43
2017-12-17T15:03:31.854Z,3.80
2017-12-17T15:05:59.217Z,3.70
2017-12-17T15:08:26.699Z,4.40
2017-12-17T15:10:54.055Z,4.40
2017-12-17T15:13:21.359Z,4.13
2017-12-17T15:15:48.727Z,3.90
2017-12-17T15:18:16.038Z,4.50
2017-12-17T15:20:43.341Z,4.80
2017-12-17T15:23:10.865Z,5.03
2017-12-17T15:25:38.162Z,4.93
2017-12-17T15:28:05.571Z,5.70
2017-12-17T15:30:32.932Z,7.47
2017-12-17T15:33:00.240Z,4.70
2017-12-17T15:35:27.755Z,6.20
2017-12-17T15:37:55.108Z,4.50
2017-12-17T15:40:22.676Z,4.83
2017-12-17T15:42:49.994Z,5.20
2017-12-17T15:45:17.465Z,11.27
2017-12-17T15:47:44.803Z,5.83
2017-12-17T15:50:12.121Z,5.53
2017-12-17T15:52:39.474Z,4.70
2017-12-17T15:55:06.810Z,5.97
2017-12-17T15:57:35.139Z,5.30
2017-12-17T16:00:02.512Z,4.63
2017-12-17T16:02:29.834Z,5.80
2017-12-17T16:04:57.387Z,4.80
2017-12-17T16:07:24.740Z,4.93
2017-12-17T16:09:52.075Z,4.77
2017-12-17T16:12:19.598Z,5.50
2017-12-17T16:14:47.268Z,4.90
2017-12-17T16:17:14.767Z,5.00
2017-12-17T16:19:42.074Z,5.60
2017-12-17T16:22:09.714Z,5.30
2017-12-17T16:24:37.110Z,5.87
2017-12-17T16:27:05.409Z,5.73
2017-12-17T16:29:32.795Z,6.07
2017-12-17T16:32:00.194Z,6.17
2017-12-17T16:34:27.519Z,7.10
2017-12-17T16:36:54.919Z,6.63
2017-12-17T16:39:22.255Z,7.40
2017-12-17T16:41:49.623Z,8.27
2017-12-17T16:44:16.976Z,8.30
2017-12-17T16:46:44.368Z,7.17
2017-12-17T16:49:11.711Z,7.33
2017-12-17T16:51:39.178Z,8.13
2017-12-17T16:54:06.688Z,6.87
2017-12-17T16:56:34.074Z,6.90
2017-12-17T16:59:01.382Z,6.47
2017-12-17T17:01:28.755Z,5.87
2017-12-17T17:03:56.121Z,3.57
2017-12-17T17:06:23.454Z,3.73
2017-12-17T17:08:50.770Z,5.10
2017-12-17T17:11:19.192Z,5.33
2017-12-17T17:13:46.559Z,6.77
2017-12-17T17:16:14.891Z,7.63
2017-12-17T17:18:42.263Z,7.63
2017-12-17T17:21:09.603Z,7.93
2017-12-17T17:23:36.949Z,7.20
2017-12-17T17:26:04.478Z,8.50
2017-12-17T17:28:31.816Z,9.00
2017-12-17T17:30:59.170Z,13.13
2017-12-17T17:33:26.563Z,12.20
2017-12-17T17:35:53.884Z,9.07
2017-12-17T17:38:21.235Z,20.50
2017-12-17T17:40:48.618Z,8.23
2017-12-17T17:43:15.979Z,4.80
2017-12-17T17:45:43.290Z,10.10
2017-12-17T17:48:10.715Z,6.63
2017-12-17T17:50:38.024Z,4.20
2017-12-17T17:53:05.379Z,5.30
2017-12-17T17:55:32.773Z,5.17
2017-12-17T17:58:00.071Z,5.13
2017-12-17T18:00:27.426Z,6.17
2017-12-17T18:02:54.819Z,6.00
2017-12-17T18:05:22.125Z,6.67
2017-12-17T18:07:49.442Z,6.00
2017-12-17T18:10:16.810Z,7.13
2017-12-17T18:12:44.142Z,6.20
2017-12-17T18:15:11.471Z,5.73
2017-12-17T18:17:38.820Z,5.33
2017-12-17T18:20:06.254Z,5.80
2017-12-17T18:22:33.650Z,5.87
2017-12-17T18:25:01.159Z,6.03
2017-12-17T18:27:28.499Z,5.77
2017-12-17T18:29:56.047Z,5.27
2017-12-17T18:32:23.362Z,5.60
2017-12-17T18:34:50.696Z,5.67
2017-12-17T18:37:18.090Z,5.13
2017-12-17T18:39:45.430Z,6.13
2017-12-17T18:42:12.950Z,6.30
2017-12-17T18:44:40.339Z,5.57
2017-12-17T18:47:07.671Z,6.90
2017-12-17T18:49:35.018Z,6.07
2017-12-17T18:52:02.351Z,6.63
2017-12-17T18:54:29.686Z,6.50
2017-12-17T18:56:57.039Z,6.17
2017-12-17T18:59:24.337Z,6.70
2017-12-17T19:01:51.765Z,7.23
2017-12-17T19:04:19.082Z,7.33
2017-12-17T19:06:46.390Z,7.83
2017-12-17T19:09:13.738Z,7.90
2017-12-17T19:11:41.062Z,7.90
2017-12-17T19:14:08.758Z,6.17
2017-12-17T19:16:36.454Z,7.43
2017-12-17T19:19:04.102Z,6.90
2017-12-17T19:21:31.532Z,6.80
2017-12-17T19:23:59.247Z,6.90
2017-12-17T19:26:26.952Z,6.20
2017-12-17T19:28:54.659Z,5.90
2017-12-17T19:31:22.387Z,5.87
2017-12-17T19:33:50.082Z,6.67
2017-12-17T19:36:17.722Z,5.70
2017-12-17T19:38:45.031Z,5.70
2017-12-17T19:41:12.424Z,6.67
2017-12-17T19:43:39.811Z,5.97
2017-12-17T19:46:07.439Z,6.17
2017-12-17T19:48:35.138Z,5.90
2017-12-17T19:51:02.770Z,5.40
2017-12-17T19:53:30.447Z,5.97
2017-12-17T19:55:58.106Z,5.60
2017-12-17T19:58:25.422Z,5.30
2017-12-17T20:00:52.877Z,5.40
2017-12-17T20:03:20.567Z,5.13
2017-12-17T20:05:47.908Z,5.60
2017-12-17T20:08:15.619Z,6.00
2017-12-17T20:10:43.246Z,5.23
2017-12-17T20:13:10.551Z,5.40
2017-12-17T20:15:38.391Z,5.83
2017-12-17T20:18:06.067Z,5.87
2017-12-17T20:20:33.713Z,5.70
2017-12-17T20:23:01.111Z,5.67
2017-12-17T20:25:28.991Z,6.00
2017-12-17T20:27:56.347Z,6.00
2017-12-17T20:30:24.023Z,6.40
2017-12-17T20:32:51.391Z,5.73
2017-12-17T20:35:19.062Z,6.10
2017-12-17T20:37:46.603Z,7.00
2017-12-17T20:40:13.990Z,6.50
2017-12-17T20:42:41.644Z,6.17
2017-12-17T20:45:09.348Z,7.13
2017-12-17T20:47:36.798Z,6.53
2017-12-17T20:50:04.505Z,7.00
2017-12-17T20:52:31.872Z,7.27
2017-12-17T20:54:59.535Z,6.90
2017-12-17T20:57:26.932Z,7.33
2017-12-17T20:59:54.363Z,6.80
2017-12-17T21:02:21.900Z,6.77
2017-12-17T21:04:49.403Z,8.83
2017-12-17T21:07:17.494Z,8.03
2017-12-17T21:09:45.035Z,7.93
2017-12-17T21:12:12.416Z,7.50
2017-12-17T21:14:39.734Z,7.93
2017-12-17T21:17:07.067Z,8.27
2017-12-17T21:19:34.421Z,8.00
2017-12-17T21:22:02.812Z,7.50
2017-12-17T21:24:30.132Z,7.97
2017-12-17T21:26:57.492Z,7.50
2017-12-17T21:29:24.833Z,8.77
2017-12-17T21:31:52.154Z,8.03
2017-12-17T21:34:19.530Z,12.47
2017-12-17T21:36:46.915Z,23.87
2017-12-17T21:39:14.261Z,18.70
2017-12-17T21:41:41.698Z,8.80
2017-12-17T21:44:09.019Z,8.50
2017-12-17T21:46:36.466Z,8.97
2017-12-17T21:49:04.779Z,8.77
2017-12-17T21:51:32.351Z,9.50
2017-12-17T21:53:59.764Z,11.53
2017-12-17T21:56:27.108Z,10.20
2017-12-17T21:58:54.448Z,10.03
2017-12-17T22:01:21.908Z,9.43
2017-12-17T22:03:49.365Z,14.70
2017-12-17T22:06:16.731Z,13.97
2017-12-17T22:08:44.131Z,15.37
2017-12-17T22:11:11.450Z,10.37
2017-12-17T22:13:38.766Z,9.37
2017-12-17T22:16:06.297Z,13.07
2017-12-17T22:18:33.642Z,10.70
2017-12-17T22:21:00.980Z,10.37
2017-12-17T22:23:28.303Z,11.30
2017-12-17T22:25:55.689Z,10.17
2017-12-17T22:28:23.023Z,10.47
2017-12-17T22:30:50.365Z,12.33
2017-12-17T22:33:17.815Z,11.60
2017-12-17T22:35:45.195Z,9.40
2017-12-17T22:38:12.609Z,10.53
2017-12-17T22:40:39.918Z,10.70
2017-12-17T22:43:07.287Z,10.23
2017-12-17T22:45:34.754Z,6.50
2017-12-17T22:48:02.451Z,9.33
2017-12-17T22:50:30.177Z,9.13
2017-12-17T22:52:57.886Z,8.47
2017-12-17T22:55:25.543Z,8.80
2017-12-17T22:57:52.876Z,10.70
2017-12-17T23:00:20.237Z,9.97
2017-12-17T23:02:47.687Z,9.37
2017-12-17T23:05:15.119Z,9.00
2017-12-17T23:07:42.587Z,9.63
2017-12-17T23:10:10.330Z,10.40
2017-12-17T23:12:37.683Z,9.37
2017-12-17T23:15:05.111Z,8.97
2017-12-17T23:17:32.827Z,10.40
2017-12-17T23:20:00.220Z,10.60
2017-12-17T23:22:27.873Z,9.47
2017-12-17T23:24:55.548Z,10.77
2017-12-17T23:27:23.119Z,8.60
2017-12-17T23:29:50.503Z,8.33
2017-12-17T23:32:18.227Z,8.77
2017-12-17T23:34:45.946Z,8.60
2017-12-17T23:37:13.267Z,8.70
2017-12-17T23:39:40.630Z,8.07
2017-12-17T23:42:08.063Z,8.50
2017-12-17T23:44:35.677Z,8.10
2017-12-17T23:47:03.835Z,7.73
2017-12-17T23:49:31.234Z,10.43
2017-12-17T23:51:58.558Z,7.90
2017-12-17T23:54:26.218Z,7.83
2017-12-17T23:56:54.042Z,7.20
2017-12-17T23:59:21.362Z,7.37
